Time;durP1;ratioP1;P1;durP2;ratioP2;P2;SDS_P1;SDS_P2;PMS_P1;PMS_P2;Temp;Humidity;BMP_temperature;BMP_pressure;BME280_temperature;BME280_humidity;BME280_pressure;Samples;Min_cycle;Max_cycle;Signal;HPM_P1;HPM_P2
2023/04/11 00:01:03;;;;;;;3.30;3.00;;;14.00;87.20;;;;;;6303866;28;20048;-79
2023/04/11 00:04:05;;;;;;;4.97;2.67;;;13.60;90.20;;;;;;6301028;28;20049;-79
2023/04/11 00:07:07;;;;;;;4.90;3.63;;;13.30;91.50;;;;;;6303443;28;20411;-78
2023/04/11 00:10:10;;;;;;;5.88;2.25;;;13.00;92.80;;;;;;6303710;28;20048;-79
2023/04/11 00:13:12;;;;;;;5.88;2.78;;;12.80;94.70;;;;;;6303908;28;20055;-79
2023/04/11 00:16:15;;;;;;;2.80;2.45;;;12.60;96.40;;;;;;6290372;28;20049;-80
2023/04/11 00:19:17;;;;;;;6.03;2.75;;;12.50;98.10;;;;;;6276427;28;20043;-79
2023/04/11 00:22:19;;;;;;;3.38;2.65;;;12.40;99.00;;;;;;6274323;28;21329;-79
2023/04/11 00:25:22;;;;;;;2.58;2.30;;;12.30;99.90;;;;;;6302158;28;20056;-79
2023/04/11 00:28:24;;;;;;;3.28;2.60;;;12.20;99.90;;;;;;6305928;28;20063;-79
2023/04/11 00:31:26;;;;;;;4.50;2.70;;;12.20;99.90;;;;;;6304075;28;20555;-80
2023/04/11 00:34:27;;;;;;;5.88;2.38;;;12.00;99.90;;;;;;6304040;28;20055;-81
2023/04/11 00:37:30;;;;;;;3.42;2.72;;;11.90;99.90;;;;;;6305431;28;20426;-80
2023/04/11 00:40:33;;;;;;;2.95;2.70;;;11.80;99.90;;;;;;6303117;28;20044;-80
2023/04/11 00:43:35;;;;;;;5.25;3.47;;;11.70;99.90;;;;;;6303871;28;20048;-80
2023/04/11 00:46:37;;;;;;;5.47;3.22;;;11.60;99.90;;;;;;6304826;28;20036;-80
2023/04/11 00:49:40;;;;;;;3.42;2.90;;;11.70;99.90;;;;;;6304109;28;20399;-80
2023/04/11 00:52:45;;;;;;;5.43;2.92;;;11.60;99.90;;;;;;6303732;28;20052;-80
2023/04/11 00:55:49;;;;;;;5.28;3.13;;;11.70;99.90;;;;;;6304165;28;20048;-80
2023/04/11 00:58:51;;;;;;;3.03;2.20;;;11.70;99.90;;;;;;6301978;28;20044;-80
2023/04/11 01:01:53;;;;;;;5.03;3.30;;;11.70;99.90;;;;;;6303285;28;20503;-80
2023/04/11 01:04:55;;;;;;;2.50;2.08;;;11.70;99.90;;;;;;6302777;28;20051;-80
2023/04/11 01:07:57;;;;;;;2.42;1.92;;;11.70;99.90;;;;;;6302647;28;20422;-80
2023/04/11 01:11:01;;;;;;;1.60;1.50;;;11.60;99.90;;;;;;6302262;28;20040;-80
2023/04/11 01:14:03;;;;;;;4.65;2.17;;;11.40;99.90;;;;;;6302934;28;20044;-81
2023/04/11 01:17:06;;;;;;;2.03;1.10;;;11.30;99.90;;;;;;6301683;28;20052;-81
2023/04/11 01:20:09;;;;;;;1.73;1.42;;;11.20;99.90;;;;;;6302251;28;20040;-80
2023/04/11 01:23:11;;;;;;;5.55;1.08;;;11.10;99.90;;;;;;6303036;28;20459;-80
2023/04/11 01:26:14;;;;;;;1.27;0.80;;;10.90;99.90;;;;;;6302247;28;20044;-81
2023/04/11 01:29:16;;;;;;;1.92;1.13;;;10.80;99.90;;;;;;6303214;28;20049;-81
2023/04/11 01:32:18;;;;;;;6.50;2.28;;;10.70;99.90;;;;;;6302308;28;20056;-80
2023/04/11 01:35:20;;;;;;;2.47;1.48;;;10.70;99.90;;;;;;6301381;28;20067;-81
2023/04/11 01:38:21;;;;;;;2.10;1.00;;;10.70;99.90;;;;;;6301196;28;20051;-81
2023/04/11 01:41:26;;;;;;;1.10;1.00;;;10.70;99.90;;;;;;6301933;28;20059;-81
2023/04/11 01:44:28;;;;;;;4.45;1.30;;;10.70;99.90;;;;;;6301481;28;20048;-80
2023/04/11 01:47:30;;;;;;;2.55;1.10;;;10.60;99.90;;;;;;6302422;28;20059;-81
2023/04/11 01:50:32;;;;;;;5.47;1.70;;;10.60;99.90;;;;;;6302676;28;20055;-81
2023/04/11 01:53:33;;;;;;;2.03;0.95;;;10.70;99.90;;;;;;6302802;28;20056;-81
2023/04/11 01:56:37;;;;;;;4.80;1.50;;;10.60;99.90;;;;;;6302110;28;20051;-81
2023/04/11 01:59:38;;;;;;;4.47;1.73;;;10.60;99.90;;;;;;6303170;28;20060;-80
2023/04/11 02:02:40;;;;;;;2.80;1.80;;;10.50;99.90;;;;;;6303395;28;20044;-81
2023/04/11 02:05:42;;;;;;;4.80;2.60;;;10.50;99.90;;;;;;6301856;28;20053;-80
2023/04/11 02:08:44;;;;;;;3.67;1.60;;;10.40;99.90;;;;;;6301039;28;20118;-80
2023/04/11 02:11:47;;;;;;;5.35;1.20;;;10.40;99.90;;;;;;6306435;28;20048;-80
2023/04/11 02:14:49;;;;;;;4.72;1.42;;;10.30;99.90;;;;;;6306957;28;20410;-80
2023/04/11 02:17:52;;;;;;;1.77;1.42;;;10.20;99.90;;;;;;6307368;28;20094;-80
2023/04/11 02:20:54;;;;;;;2.58;1.58;;;10.20;99.90;;;;;;6305537;28;20040;-79
2023/04/11 02:23:56;;;;;;;5.18;1.35;;;10.20;99.90;;;;;;6304995;28;20127;-80
2023/04/11 02:27:00;;;;;;;2.83;1.60;;;10.20;99.90;;;;;;6291501;28;20045;-80
2023/04/11 02:30:04;;;;;;;2.05;1.60;;;10.20;99.90;;;;;;6281936;28;20507;-81
2023/04/11 02:33:07;;;;;;;2.05;1.40;;;10.20;99.90;;;;;;6283139;28;20056;-81
2023/04/11 02:36:11;;;;;;;4.38;2.00;;;10.20;99.90;;;;;;6280716;28;20049;-80
2023/04/11 02:39:13;;;;;;;3.60;1.35;;;10.20;99.90;;;;;;6282303;28;20045;-80
2023/04/11 02:42:16;;;;;;;3.33;1.38;;;10.10;99.90;;;;;;6282758;28;20047;-81
2023/04/11 02:45:18;;;;;;;5.00;1.85;;;10.10;99.90;;;;;;6292132;28;20048;-80
2023/04/11 02:48:19;;;;;;;2.92;1.52;;;10.10;99.90;;;;;;6307279;28;20048;-80
2023/04/11 02:51:21;;;;;;;2.55;1.98;;;10.10;99.90;;;;;;6307322;28;20422;-80
2023/04/11 02:54:23;;;;;;;7.57;1.63;;;10.10;99.90;;;;;;6306778;28;20063;-81
2023/04/11 02:57:26;;;;;;;9.25;1.63;;;10.10;99.90;;;;;;6307680;28;20102;-81
2023/04/11 03:00:29;;;;;;;6.93;2.00;;;10.10;99.90;;;;;;6306729;28;20044;-80
2023/04/11 03:03:30;;;;;;;3.45;1.42;;;10.10;99.90;;;;;;6305176;28;20108;-80
2023/04/11 03:06:32;;;;;;;4.70;1.45;;;10.10;99.90;;;;;;6303681;28;20047;-80
2023/04/11 03:09:34;;;;;;;4.47;2.05;;;10.10;99.90;;;;;;6304640;28;20059;-81
2023/04/11 03:12:37;;;;;;;7.07;1.60;;;10.20;99.90;;;;;;6303014;28;20051;-81
2023/04/11 03:15:39;;;;;;;3.13;1.83;;;10.10;99.90;;;;;;6303895;28;20127;-80
2023/04/11 03:18:41;;;;;;;4.00;2.25;;;10.10;99.90;;;;;;6304073;28;20510;-80
2023/04/11 03:21:43;;;;;;;5.18;1.90;;;10.10;99.90;;;;;;6306167;28;20053;-80
2023/04/11 03:24:44;;;;;;;5.03;1.73;;;10.10;99.90;;;;;;6306181;28;20051;-80
2023/04/11 03:27:47;;;;;;;2.40;1.58;;;10.10;99.90;;;;;;6306864;28;20140;-80
2023/04/11 03:30:49;;;;;;;8.52;2.03;;;10.10;99.90;;;;;;6306331;28;20048;-80
2023/04/11 03:33:51;;;;;;;5.28;1.98;;;10.10;99.90;;;;;;6306494;28;20131;-80
2023/04/11 03:36:53;;;;;;;6.82;2.58;;;10.10;99.90;;;;;;6306178;28;20052;-81
2023/04/11 03:39:54;;;;;;;11.07;2.40;;;10.10;99.90;;;;;;6306469;28;20048;-80
2023/04/11 03:43:00;;;;;;;6.88;1.80;;;10.00;99.90;;;;;;6305294;28;20055;-80
2023/04/11 03:46:02;;;;;;;5.72;2.35;;;10.00;99.90;;;;;;6303775;28;20049;-80
2023/04/11 03:49:04;;;;;;;4.00;1.67;;;10.00;99.90;;;;;;6304906;28;20503;-80
2023/04/11 03:52:08;;;;;;;8.60;1.85;;;10.00;99.90;;;;;;6304586;28;20059;-79
2023/04/11 03:55:10;;;;;;;12.60;4.53;;;10.00;99.90;;;;;;6303724;28;20481;-79
2023/04/11 03:58:13;;;;;;;8.23;2.38;;;10.00;99.90;;;;;;6303516;28;20084;-80
2023/04/11 04:01:14;;;;;;;4.38;2.20;;;10.10;99.90;;;;;;6303534;28;20045;-79
2023/04/11 04:04:16;;;;;;;3.10;2.50;;;10.10;99.90;;;;;;6302652;28;20048;-79
2023/04/11 04:07:21;;;;;;;6.47;2.03;;;10.10;99.90;;;;;;6302268;28;20049;-79
2023/04/11 04:10:22;;;;;;;4.90;1.75;;;10.10;99.90;;;;;;6303172;28;20044;-79
2023/04/11 04:13:45;;;;;;;5.28;2.00;;;10.20;99.90;;;;;;6302962;28;20048;-82
2023/04/11 04:16:59;;;;;;;10.05;2.22;;;10.10;99.90;;;;;;6303545;28;20615;-82
2023/04/11 04:20:12;;;;;;;6.53;2.42;;;10.10;99.90;;;;;;6321264;28;20131;-82
2023/04/11 04:23:16;;;;;;;7.50;2.28;;;10.10;99.90;;;;;;6318361;22;20055;-81
2023/04/11 04:26:23;;;;;;;2.10;1.85;;;10.00;99.90;;;;;;6281042;28;20052;-80
2023/04/11 04:29:36;;;;;;;4.47;2.10;;;10.00;99.90;;;;;;6283026;28;20052;-80
2023/04/11 04:32:39;;;;;;;6.32;2.08;;;10.00;99.90;;;;;;6281137;28;20045;-83
2023/04/11 04:35:41;;;;;;;5.35;3.38;;;9.90;99.90;;;;;;6280752;28;20056;-80
2023/04/11 04:38:43;;;;;;;8.65;2.03;;;9.90;99.90;;;;;;6280393;28;20052;-80
2023/04/11 04:41:47;;;;;;;4.60;1.80;;;9.90;99.90;;;;;;6281379;28;20041;-82
2023/04/11 04:44:50;;;;;;;2.63;1.63;;;9.90;99.90;;;;;;6280992;28;20045;-81
2023/04/11 04:47:52;;;;;;;7.43;1.83;;;9.90;99.90;;;;;;6279209;28;20055;-83
2023/04/11 04:50:53;;;;;;;4.72;1.70;;;9.80;99.90;;;;;;6280949;28;20037;-82
2023/04/11 04:53:56;;;;;;;2.03;1.27;;;9.80;99.90;;;;;;6280740;28;20060;-80
2023/04/11 04:56:57;;;;;;;3.55;1.38;;;9.70;99.90;;;;;;6280017;28;20055;-80
2023/04/11 05:00:00;;;;;;;15.50;3.70;;;9.60;99.90;;;;;;6280039;28;20060;-82
2023/04/11 05:03:04;;;;;;;4.40;1.67;;;9.60;99.90;;;;;;6277927;28;20048;-81
2023/04/11 05:06:06;;;;;;;5.47;1.23;;;9.50;99.90;;;;;;6278333;28;20084;-82
2023/04/11 05:09:08;;;;;;;2.97;1.27;;;9.40;99.90;;;;;;6279067;28;20642;-82
2023/04/11 05:12:09;;;;;;;5.50;1.48;;;9.40;99.90;;;;;;6279016;28;20048;-81
2023/04/11 05:15:14;;;;;;;10.68;2.45;;;9.40;99.90;;;;;;6278803;28;20056;-82
2023/04/11 05:18:15;;;;;;;6.13;2.45;;;9.40;99.90;;;;;;6278497;28;20060;-82
2023/04/11 05:21:17;;;;;;;3.70;1.70;;;9.40;99.90;;;;;;6280773;28;20045;-81
2023/04/11 05:24:19;;;;;;;5.05;1.35;;;9.40;99.90;;;;;;6280301;28;20045;-80
2023/04/11 05:27:20;;;;;;;2.90;1.25;;;9.50;99.90;;;;;;6280081;28;20045;-78
2023/04/11 05:30:23;;;;;;;1.40;1.20;;;9.40;99.90;;;;;;6275864;28;20041;-79
2023/04/11 05:33:25;;;;;;;3.55;1.20;;;9.40;99.90;;;;;;6276539;28;20063;-80
2023/04/11 05:36:27;;;;;;;4.95;1.52;;;9.40;99.90;;;;;;6224070;28;20101;-80
2023/04/11 05:39:28;;;;;;;1.45;1.15;;;9.30;99.90;;;;;;6275767;28;20053;-80
2023/04/11 05:42:30;;;;;;;1.73;1.30;;;9.30;99.90;;;;;;6272671;28;20064;-79
2023/04/11 05:45:33;;;;;;;2.38;1.02;;;9.30;99.90;;;;;;6277464;28;20045;-78
2023/04/11 05:48:36;;;;;;;1.15;1.05;;;9.30;99.90;;;;;;6279004;28;20041;-80
2023/04/11 05:51:38;;;;;;;7.95;3.03;;;9.20;99.90;;;;;;6281163;28;20126;-80
2023/04/11 05:54:40;;;;;;;1.17;0.75;;;9.20;99.90;;;;;;6277341;28;20048;-79
2023/04/11 05:57:41;;;;;;;5.82;1.45;;;9.20;99.90;;;;;;6279346;28;20064;-80
2023/04/11 06:00:45;;;;;;;2.67;1.00;;;9.20;99.90;;;;;;6278980;28;20041;-80
2023/04/11 06:03:47;;;;;;;4.40;1.92;;;9.30;99.90;;;;;;6277669;28;20049;-80
2023/04/11 06:06:50;;;;;;;2.78;1.40;;;9.30;99.90;;;;;;6295394;28;20044;-80
2023/04/11 06:09:52;;;;;;;2.50;1.02;;;9.30;99.90;;;;;;6301366;28;20075;-80
2023/04/11 06:12:54;;;;;;;5.25;1.75;;;9.30;99.90;;;;;;6293330;28;20047;-81
2023/04/11 06:15:57;;;;;;;7.38;2.05;;;9.30;99.90;;;;;;6285967;28;20051;-79
2023/04/11 06:18:59;;;;;;;3.65;1.00;;;9.40;99.90;;;;;;6302089;28;20514;-80
2023/04/11 06:22:00;;;;;;;2.58;1.50;;;9.40;99.90;;;;;;6301832;28;20052;-81
2023/04/11 06:25:03;;;;;;;5.18;1.10;;;9.40;99.90;;;;;;6302717;28;20048;-81
2023/04/11 06:28:04;;;;;;;3.97;2.10;;;9.50;99.90;;;;;;6301998;28;20048;-82
2023/04/11 06:31:08;;;;;;;5.05;1.35;;;9.50;99.90;;;;;;6301683;28;20059;-81
2023/04/11 06:34:11;;;;;;;15.73;4.85;;;9.60;99.90;;;;;;6301182;28;20051;-81
2023/04/11 06:37:12;;;;;;;5.47;1.50;;;9.60;99.90;;;;;;6300802;28;20052;-80
2023/04/11 06:40:16;;;;;;;4.30;2.03;;;9.70;99.90;;;;;;6301729;28;20056;-80
2023/04/11 06:43:17;;;;;;;3.55;2.38;;;9.70;99.90;;;;;;6291040;28;20132;-81
2023/04/11 06:46:20;;;;;;;6.07;2.55;;;9.70;99.90;;;;;;6284487;28;20075;-80
2023/04/11 06:49:22;;;;;;;13.55;5.38;;;9.80;99.90;;;;;;6276666;28;20072;-82
2023/04/11 06:52:24;;;;;;;7.18;2.13;;;10.00;99.90;;;;;;6278225;28;20041;-81
2023/04/11 06:55:26;;;;;;;4.32;1.45;;;10.30;99.90;;;;;;6272997;28;20411;-81
2023/04/11 06:58:27;;;;;;;3.03;1.35;;;10.70;99.90;;;;;;6275986;28;20048;-81
2023/04/11 07:01:34;;;;;;;4.68;1.73;;;11.20;99.90;;;;;;6276299;28;20349;-81
2023/04/11 07:04:36;;;;;;;6.30;1.90;;;11.50;99.90;;;;;;6276925;28;20041;-81
2023/04/11 07:07:37;;;;;;;1.58;1.17;;;11.70;99.90;;;;;;6278945;28;20045;-81
2023/04/11 07:10:39;;;;;;;4.03;1.63;;;11.90;99.90;;;;;;6278784;28;20045;-81
2023/04/11 07:13:41;;;;;;;2.03;1.15;;;12.40;99.90;;;;;;6279519;28;20049;-81
2023/04/11 07:16:44;;;;;;;4.85;1.33;;;13.00;99.90;;;;;;6279388;28;20049;-82
2023/04/11 07:19:45;;;;;;;8.50;1.30;;;13.50;99.90;;;;;;6278678;28;20059;-82
2023/04/11 07:22:47;;;;;;;4.07;2.10;;;13.60;99.90;;;;;;6279933;28;20533;-80
2023/04/11 07:25:49;;;;;;;6.38;1.23;;;13.40;99.90;;;;;;6280110;28;20053;-82
2023/04/11 07:28:51;;;;;;;3.58;1.80;;;13.80;99.90;;;;;;6279580;28;20175;-81
2023/04/11 07:31:54;;;;;;;6.45;1.52;;;14.50;99.90;;;;;;6279584;28;20430;-81
2023/04/11 07:34:56;;;;;;;2.90;1.50;;;15.10;99.90;;;;;;6278715;28;20071;-80
2023/04/11 07:37:59;;;;;;;3.72;2.00;;;15.10;99.90;;;;;;6279749;28;20049;-81
2023/04/11 07:41:03;;;;;;;4.03;1.40;;;15.00;99.90;;;;;;6279403;28;20510;-80
2023/04/11 07:44:06;;;;;;;4.88;1.30;;;14.80;99.90;;;;;;6277811;28;20052;-81
2023/04/11 07:47:09;;;;;;;6.22;1.63;;;14.60;99.90;;;;;;6278827;28;20041;-80
2023/04/11 07:50:11;;;;;;;5.00;1.30;;;14.30;99.90;;;;;;6278884;28;20502;-80
2023/04/11 07:53:13;;;;;;;5.80;1.75;;;14.30;99.90;;;;;;6278719;28;20059;-81
2023/04/11 07:56:15;;;;;;;4.15;1.15;;;13.90;99.90;;;;;;6278003;28;20045;-81
2023/04/11 07:59:16;;;;;;;3.63;1.63;;;13.70;99.90;;;;;;6277728;28;20139;-81
2023/04/11 08:02:19;;;;;;;9.10;2.08;;;13.50;99.90;;;;;;6277365;28;20045;-81
2023/04/11 08:05:21;;;;;;;4.45;1.10;;;13.50;99.90;;;;;;6281491;28;20056;-81
2023/04/11 08:08:23;;;;;;;6.68;1.65;;;13.50;99.90;;;;;;6302975;28;20049;-80
2023/04/11 08:11:25;;;;;;;11.75;1.98;;;13.40;99.90;;;;;;6302702;28;20044;-80
2023/04/11 08:14:26;;;;;;;7.15;2.33;;;13.20;99.90;;;;;;6301103;28;20055;-82
2023/04/11 08:17:29;;;;;;;6.60;1.63;;;12.90;99.90;;;;;;6303082;28;20048;-80
2023/04/11 08:20:31;;;;;;;6.22;2.20;;;13.00;99.90;;;;;;6283084;28;20061;-81
2023/04/11 08:23:33;;;;;;;3.35;1.15;;;12.90;99.90;;;;;;6276800;28;20060;-81
2023/04/11 08:26:34;;;;;;;7.18;1.65;;;13.00;99.90;;;;;;6276774;28;20041;-82
2023/04/11 08:29:36;;;;;;;7.30;2.17;;;13.10;99.90;;;;;;6278309;28;20057;-82
2023/04/11 08:32:39;;;;;;;6.60;1.95;;;13.30;99.90;;;;;;6275999;28;20052;-83
2023/04/11 08:35:42;;;;;;;9.95;1.67;;;13.60;99.90;;;;;;6277997;28;20044;-81
2023/04/11 08:38:43;;;;;;;5.85;1.58;;;13.80;99.90;;;;;;6277894;28;20045;-82
2023/04/11 08:41:46;;;;;;;4.55;1.58;;;13.90;99.90;;;;;;6278586;28;20575;-82
2023/04/11 08:44:52;;;;;;;3.65;1.60;;;14.00;99.90;;;;;;6277732;28;20045;-82
2023/04/11 08:47:55;;;;;;;7.00;1.67;;;14.10;99.90;;;;;;6280122;28;20045;-83
2023/04/11 08:50:57;;;;;;;3.95;1.70;;;14.40;99.90;;;;;;6277412;28;20041;-82
2023/04/11 08:54:04;;;;;;;7.80;2.30;;;14.70;99.90;;;;;;6277851;28;20049;-82
2023/04/11 08:57:06;;;;;;;9.50;2.05;;;15.30;99.90;;;;;;6278144;28;20419;-82
2023/04/11 09:00:12;;;;;;;9.68;2.00;;;15.70;99.90;;;;;;6277747;28;20049;-83
2023/04/11 09:03:16;;;;;;;7.35;1.70;;;15.60;99.90;;;;;;6277238;28;20059;-81
2023/04/11 09:06:18;;;;;;;6.55;1.40;;;15.60;99.90;;;;;;6276689;28;20521;-83
2023/04/11 09:09:29;;;;;;;7.30;1.50;;;15.70;99.90;;;;;;6277418;28;20048;-82
2023/04/11 09:12:31;;;;;;;7.45;1.52;;;15.80;99.90;;;;;;6278815;28;20040;-82
2023/04/11 09:15:32;;;;;;;6.45;2.13;;;15.70;99.90;;;;;;6277797;28;20041;-82
2023/04/11 09:18:37;;;;;;;6.30;2.03;;;15.70;99.90;;;;;;6278459;28;20125;-83
2023/04/11 09:21:48;;;;;;;6.70;1.70;;;15.80;99.90;;;;;;6279669;28;20049;-81
2023/04/11 09:25:01;;;;;;;7.05;1.85;;;16.10;99.90;;;;;;6278625;28;20052;-82
2023/04/11 09:28:08;;;;;;;3.05;1.20;;;16.40;99.90;;;;;;6277554;28;20053;-81
2023/04/11 09:31:11;;;;;;;25.90;3.08;;;16.10;99.90;;;;;;6279511;28;20056;-81
2023/04/11 09:34:24;;;;;;;5.72;1.55;;;15.90;99.90;;;;;;6278425;28;20052;-82
2023/04/11 09:37:26;;;;;;;5.38;1.88;;;15.50;99.90;;;;;;6281185;28;20056;-82
2023/04/11 09:40:30;;;;;;;7.28;1.65;;;15.40;99.90;;;;;;6274264;28;20045;-80
2023/04/11 09:43:50;;;;;;;3.90;1.48;;;15.20;99.90;;;;;;6276421;28;20090;-81
2023/04/11 09:46:59;;;;;;;5.55;1.20;;;15.10;99.90;;;;;;6273675;28;20496;-82
2023/04/11 09:50:03;;;;;;;4.50;1.08;;;15.10;99.90;;;;;;6283907;28;20045;-80
2023/04/11 09:53:06;;;;;;;4.38;1.50;;;15.20;99.90;;;;;;6280071;28;20060;-82
2023/04/11 09:56:09;;;;;;;4.93;1.38;;;15.50;99.90;;;;;;6275835;28;20169;-80
2023/04/11 09:59:11;;;;;;;8.13;2.10;;;15.50;99.90;;;;;;6276210;28;20055;-81
2023/04/11 10:02:13;;;;;;;5.57;0.98;;;15.30;99.90;;;;;;6277473;28;20106;-81
2023/04/11 10:05:17;;;;;;;7.05;2.38;;;15.40;99.90;;;;;;6274638;28;20045;-81
2023/04/11 10:08:29;;;;;;;4.57;1.27;;;15.50;99.90;;;;;;6270494;28;20181;-79
2023/04/11 10:11:31;;;;;;;6.10;3.17;;;15.70;99.90;;;;;;6272837;28;20332;-81
2023/04/11 10:14:45;;;;;;;5.60;1.50;;;15.80;99.90;;;;;;6266598;28;20041;-82
2023/04/11 10:18:09;;;;;;;4.18;2.35;;;15.70;99.90;;;;;;6272718;28;20064;-81
2023/04/11 10:21:39;;;;;;;4.55;1.65;;;15.60;99.90;;;;;;6274141;28;20053;-81
2023/04/11 10:25:17;;;;;;;7.40;3.13;;;15.60;99.90;;;;;;6272730;28;20108;-84
2023/04/11 10:28:37;;;;;;;7.68;1.50;;;15.30;99.90;;;;;;6273591;28;20042;-84
2023/04/11 10:32:09;;;;;;;6.93;1.80;;;15.20;99.90;;;;;;6283238;28;20048;-84
2023/04/11 10:35:25;;;;;;;7.55;1.73;;;15.20;99.90;;;;;;6277723;28;20111;-84
2023/04/11 10:38:50;;;;;;;8.10;1.38;;;15.20;99.90;;;;;;6280784;28;20057;-84
2023/04/11 10:41:52;;;;;;;5.20;2.20;;;15.10;99.90;;;;;;6278752;28;20136;-83
2023/04/11 10:45:16;;;;;;;3.85;1.60;;;15.20;99.90;;;;;;6278910;28;20036;-86
2023/04/11 10:48:18;;;;;;;4.30;2.30;;;15.50;99.90;;;;;;6279465;28;20076;-84
2023/04/11 10:51:24;;;;;;;2.63;1.50;;;15.80;99.90;;;;;;6275758;28;20057;-86
2023/04/11 10:54:28;;;;;;;8.23;1.45;;;15.90;99.90;;;;;;6275070;28;20091;-83
2023/04/11 10:58:06;;;;;;;4.35;1.73;;;16.10;99.90;;;;;;6275424;28;20107;-83
2023/04/11 11:01:25;;;;;;;5.20;1.67;;;16.40;99.90;;;;;;6273584;28;20065;-83
2023/04/11 11:04:31;;;;;;;8.25;1.40;;;16.50;99.90;;;;;;6274303;28;20572;-82
2023/04/11 11:07:33;;;;;;;2.83;1.17;;;16.60;99.90;;;;;;6277312;28;20047;-86
2023/04/11 11:10:40;;;;;;;5.60;1.67;;;16.50;99.90;;;;;;6277570;28;20060;-83
2023/04/11 11:13:43;;;;;;;6.72;1.63;;;16.50;99.90;;;;;;6282216;28;20045;-85
2023/04/11 11:16:46;;;;;;;5.13;3.00;;;16.50;99.90;;;;;;6277662;28;20128;-82
2023/04/11 11:19:48;;;;;;;2.55;1.02;;;16.50;99.90;;;;;;6280595;28;20051;-83
2023/04/11 11:23:00;;;;;;;4.60;0.90;;;16.70;99.90;;;;;;6285391;28;20041;-85
2023/04/11 11:26:03;;;;;;;8.02;1.52;;;17.00;99.50;;;;;;6280908;28;20045;-83
2023/04/11 11:29:05;;;;;;;4.65;1.58;;;17.00;98.80;;;;;;6279011;28;20052;-82
2023/04/11 11:32:07;;;;;;;4.85;1.10;;;17.00;99.90;;;;;;6281509;28;20400;-81
2023/04/11 11:35:12;;;;;;;6.18;1.67;;;16.80;98.90;;;;;;6279125;28;20109;-82
2023/04/11 11:38:14;;;;;;;7.15;2.55;;;16.70;99.20;;;;;;6279378;28;20049;-82
2023/04/11 11:41:17;;;;;;;7.32;4.93;;;16.70;99.80;;;;;;6272785;28;20079;-82
2023/04/11 11:44:23;;;;;;;8.05;4.25;;;17.10;98.70;;;;;;6276577;28;20036;-82
2023/04/11 11:47:26;;;;;;;19.63;8.85;;;17.30;98.90;;;;;;6277618;28;23170;-83
2023/04/11 11:50:29;;;;;;;7.15;3.22;;;17.20;98.70;;;;;;6275540;28;20087;-82
2023/04/11 11:53:31;;;;;;;8.50;2.80;;;17.20;98.80;;;;;;6281366;28;20040;-83
2023/04/11 11:56:34;;;;;;;10.05;4.38;;;17.00;98.70;;;;;;6277074;28;20041;-83
2023/04/11 11:59:36;;;;;;;5.60;3.30;;;16.80;97.60;;;;;;6278763;28;20059;-82
2023/04/11 12:02:39;;;;;;;27.23;16.17;;;16.60;98.10;;;;;;6276122;28;20045;-82
2023/04/11 12:05:43;;;;;;;14.88;6.43;;;16.30;98.00;;;;;;6282643;28;20789;-81
2023/04/11 12:08:49;;;;;;;7.05;3.15;;;16.10;98.60;;;;;;6279947;28;20040;-83
2023/04/11 12:11:55;;;;;;;18.20;9.13;;;16.00;99.00;;;;;;6280389;28;20125;-81
2023/04/11 12:14:56;;;;;;;28.55;13.93;;;15.90;98.50;;;;;;6277511;28;20049;-83
2023/04/11 12:17:58;;;;;;;15.40;8.40;;;15.80;98.70;;;;;;6277670;28;20052;-81
2023/04/11 12:21:00;;;;;;;7.03;2.35;;;15.80;98.00;;;;;;6266618;28;20052;-83
2023/04/11 12:24:01;;;;;;;4.20;2.50;;;16.00;98.00;;;;;;6263984;28;20387;-83
2023/04/11 12:27:05;;;;;;;4.80;2.90;;;15.90;96.80;;;;;;6267287;28;20044;-83
2023/04/11 12:30:08;;;;;;;5.45;2.15;;;15.90;96.10;;;;;;6265466;28;20048;-83
2023/04/11 12:33:09;;;;;;;4.78;2.60;;;16.10;96.90;;;;;;6266413;28;20506;-83
2023/04/11 12:36:13;;;;;;;2.75;1.45;;;16.20;96.80;;;;;;6265607;28;20041;-82
2023/04/11 12:39:14;;;;;;;3.17;2.47;;;16.30;96.10;;;;;;6264192;28;20049;-82
2023/04/11 12:42:17;;;;;;;5.43;2.35;;;16.40;95.00;;;;;;6265824;28;20053;-83
2023/04/11 12:45:19;;;;;;;34.95;31.35;;;16.30;94.00;;;;;;6275869;28;20048;-82
2023/04/11 12:48:21;;;;;;;7.72;5.82;;;16.20;94.40;;;;;;6276454;28;20064;-82
2023/04/11 12:51:23;;;;;;;6.63;2.30;;;16.10;94.90;;;;;;6279806;28;20037;-83
2023/04/11 12:54:24;;;;;;;6.25;1.65;;;16.20;94.50;;;;;;6276990;28;20198;-83
2023/04/11 12:57:27;;;;;;;1.98;1.30;;;16.50;93.80;;;;;;6277753;28;20156;-81
2023/04/11 13:00:29;;;;;;;4.63;2.17;;;16.70;93.60;;;;;;6274614;28;20056;-82
2023/04/11 13:03:31;;;;;;;3.63;1.33;;;17.00;93.50;;;;;;6280646;28;20117;-81
2023/04/11 13:06:33;;;;;;;7.18;1.10;;;17.10;92.50;;;;;;6273363;28;20040;-81
2023/04/11 13:09:35;;;;;;;7.95;1.77;;;17.20;92.50;;;;;;6270196;28;20082;-83
2023/04/11 13:12:40;;;;;;;9.68;1.67;;;17.20;91.90;;;;;;6270609;28;20486;-82
2023/04/11 13:15:41;;;;;;;4.45;1.00;;;17.10;92.00;;;;;;6273366;28;20056;-82
2023/04/11 13:18:43;;;;;;;5.43;1.17;;;17.20;91.90;;;;;;6267769;28;20040;-82
2023/04/11 13:21:45;;;;;;;3.85;1.20;;;17.30;91.10;;;;;;6272965;28;20388;-82
2023/04/11 13:24:46;;;;;;;5.88;1.40;;;17.30;91.30;;;;;;6272140;28;20329;-82
2023/04/11 13:27:49;;;;;;;5.18;1.40;;;17.50;91.70;;;;;;6274290;28;20044;-81
2023/04/11 13:30:51;;;;;;;5.35;1.90;;;17.60;91.70;;;;;;6272583;28;20052;-82
2023/04/11 13:33:53;;;;;;;4.97;1.75;;;17.80;90.20;;;;;;6270815;28;20074;-84
2023/04/11 13:36:55;;;;;;;6.25;3.40;;;17.80;88.80;;;;;;6270480;28;20529;-81
2023/04/11 13:39:56;;;;;;;6.38;4.88;;;18.00;86.80;;;;;;6270900;28;20056;-82
2023/04/11 13:42:59;;;;;;;6.70;3.33;;;18.30;84.60;;;;;;6274882;28;20040;-82
2023/04/11 13:46:01;;;;;;;7.18;4.85;;;18.40;82.60;;;;;;6273663;28;20045;-83
2023/04/11 13:49:04;;;;;;;6.13;4.53;;;18.50;80.10;;;;;;6269752;28;20041;-84
2023/04/11 13:52:06;;;;;;;7.57;4.07;;;18.20;77.30;;;;;;6272528;28;20057;-81
2023/04/11 13:55:08;;;;;;;10.52;3.75;;;18.20;74.20;;;;;;6273799;28;20053;-82
2023/04/11 13:58:11;;;;;;;3.88;1.23;;;18.30;74.60;;;;;;6273245;28;20049;-82
2023/04/11 14:01:14;;;;;;;4.70;1.25;;;18.50;72.20;;;;;;6274130;28;20061;-80
2023/04/11 14:04:16;;;;;;;2.65;1.08;;;18.60;71.60;;;;;;6267354;28;20518;-82
2023/04/11 14:07:17;;;;;;;7.28;1.60;;;18.60;70.30;;;;;;6281149;28;20052;-79
2023/04/11 14:10:19;;;;;;;6.32;1.80;;;18.50;67.70;;;;;;6278180;28;21970;-82
2023/04/11 14:13:22;;;;;;;4.03;1.70;;;18.20;68.10;;;;;;6278157;28;20049;-81
2023/04/11 14:16:24;;;;;;;5.43;2.17;;;18.50;67.90;;;;;;6279691;28;20044;-80
2023/04/11 14:19:26;;;;;;;4.03;0.93;;;18.80;67.00;;;;;;6279189;28;20495;-80
2023/04/11 14:22:27;;;;;;;5.72;1.65;;;18.90;66.00;;;;;;6275755;28;20114;-81
2023/04/11 14:25:29;;;;;;;4.88;1.33;;;18.90;64.60;;;;;;6275569;28;20060;-83
2023/04/11 14:28:32;;;;;;;3.28;0.80;;;18.50;65.00;;;;;;6275109;28;20056;-80
2023/04/11 14:31:35;;;;;;;4.75;1.10;;;18.10;65.30;;;;;;6273842;28;20076;-82
2023/04/11 14:34:37;;;;;;;4.68;1.75;;;18.00;65.20;;;;;;6284158;28;20048;-82
2023/04/11 14:37:39;;;;;;;3.00;1.20;;;18.00;64.80;;;;;;6285274;28;20411;-85
2023/04/11 14:40:41;;;;;;;3.83;1.05;;;17.80;64.90;;;;;;6280695;28;20045;-82
2023/04/11 14:43:44;;;;;;;2.72;1.20;;;17.70;64.20;;;;;;6279499;28;20105;-83
2023/04/11 14:46:45;;;;;;;5.10;1.60;;;17.60;64.60;;;;;;6283208;28;20103;-83
2023/04/11 14:49:47;;;;;;;6.05;1.55;;;17.70;64.40;;;;;;6283537;28;20057;-81
2023/04/11 14:52:50;;;;;;;5.20;1.73;;;17.80;64.10;;;;;;6279669;28;20048;-83
2023/04/11 14:55:52;;;;;;;5.93;2.72;;;17.90;63.60;;;;;;6282801;28;20126;-84
2023/04/11 14:58:55;;;;;;;4.82;1.17;;;17.90;63.80;;;;;;6275757;28;20041;-84
2023/04/11 15:01:57;;;;;;;6.18;1.10;;;17.90;62.60;;;;;;6265925;28;20056;-83
2023/04/11 15:04:58;;;;;;;3.22;1.30;;;17.70;63.10;;;;;;6267665;28;20090;-82
2023/04/11 15:08:00;;;;;;;3.38;1.45;;;17.60;62.60;;;;;;6270684;28;20059;-79
2023/04/11 15:11:02;;;;;;;3.80;1.40;;;17.40;62.60;;;;;;6271573;28;20492;-83
2023/04/11 15:14:05;;;;;;;4.60;2.05;;;17.50;62.30;;;;;;6269395;28;20056;-83
2023/04/11 15:17:07;;;;;;;10.18;2.35;;;17.40;62.70;;;;;;6267705;28;20412;-85
2023/04/11 15:20:10;;;;;;;11.15;2.08;;;17.40;63.00;;;;;;6270438;28;20053;-86
2023/04/11 15:23:12;;;;;;;3.38;2.15;;;17.60;63.60;;;;;;6278492;28;20044;-85
2023/04/11 15:26:13;;;;;;;3.35;1.35;;;17.50;63.30;;;;;;6279735;28;20052;-83
2023/04/11 15:29:17;;;;;;;1.77;1.00;;;17.40;63.00;;;;;;6284915;28;20068;-84
2023/04/11 15:32:18;;;;;;;6.45;2.75;;;17.40;63.10;;;;;;6283184;28;20048;-84
2023/04/11 15:35:20;;;;;;;3.17;1.80;;;17.30;62.40;;;;;;6281776;28;20155;-85
2023/04/11 15:38:22;;;;;;;3.75;1.63;;;17.20;62.40;;;;;;6286798;28;20360;-87
2023/04/11 15:41:23;;;;;;;4.10;2.08;;;17.30;62.40;;;;;;6289017;28;20056;-83
2023/04/11 15:47:47;;;;;;;8.02;1.45;;;17.20;62.30;;;;;;6284613;28;20040;-84
2023/04/11 15:50:49;;;;;;;4.90;2.22;;;17.10;61.70;;;;;;6285106;28;20059;-84
2023/04/11 15:53:51;;;;;;;5.43;2.00;;;17.10;62.30;;;;;;6279438;28;20045;-83
2023/04/11 15:56:53;;;;;;;9.25;2.92;;;16.90;62.60;;;;;;6283740;28;20047;-84
2023/04/11 15:59:56;;;;;;;5.00;1.52;;;16.90;63.20;;;;;;6283385;28;20060;-85